Arkville, New York
Current Conditions -  °F | °C
As of 2:55 PM on Sunday 25 Jan 2015 (Local Time) from KMSV Reporting Station
Clear Clear  
Wind Chill: 15°   Ceiling: Unl
Heat Index: 27°   Visibility: 10mi
Dew Point:   Wind: 15mph
Humidity: 47%   Direction: 300°WNW
Pressure: 29.78"   Gusts: 22mph
Location:  42.15°N, 74.62°W
Report Text: KMSV 251955Z AUTO 30013G19KT 10SM CLR M03/M13 A2978 RMK AO1 WSHFT 46
Loading
Personal Weather Stations






























Interactive Weather Map New forecast layout! Learn more

10-Day Weather Forecast

Advertisements
Track Severe Weather on mobile